Time;durP1;ratioP1;P1;durP2;ratioP2;P2;SDS_P1;SDS_P2;PMS_P1;PMS_P2;Temp;Humidity;BMP_temperature;BMP_pressure;BME280_temperature;BME280_humidity;BME280_pressure;Samples;Min_cycle;Max_cycle;Signal;HPM_P1;HPM_P2
2022/05/06 00:02:08;;;;;;;4.13;3.65;;;20.70;45.80;;;;;;4946254;28;20118;-61
2022/05/06 00:04:34;;;;;;;4.25;3.60;;;20.70;46.60;;;;;;4943884;28;20070;-62
2022/05/06 00:07:00;;;;;;;3.85;3.55;;;20.70;45.80;;;;;;4946956;28;20039;-61
2022/05/06 00:09:25;;;;;;;4.35;3.58;;;20.70;45.80;;;;;;4946661;28;20046;-61
2022/05/06 00:11:51;;;;;;;4.68;4.18;;;20.70;45.80;;;;;;4946209;28;20039;-61
2022/05/06 00:14:18;;;;;;;4.88;3.97;;;20.70;45.80;;;;;;4946739;29;20078;-61
2022/05/06 00:16:43;;;;;;;3.97;3.58;;;20.70;45.80;;;;;;4946453;29;20051;-61
2022/05/06 00:19:09;;;;;;;3.90;3.50;;;20.70;45.80;;;;;;4944756;28;20075;-61
2022/05/06 00:21:35;;;;;;;4.00;3.58;;;20.70;45.70;;;;;;4944972;29;20557;-61
2022/05/06 00:24:02;;;;;;;4.60;4.10;;;20.70;45.70;;;;;;4946228;28;20039;-61
2022/05/06 00:26:27;;;;;;;5.07;4.28;;;20.70;45.70;;;;;;4945807;29;20043;-61
2022/05/06 00:28:53;;;;;;;4.57;4.07;;;20.70;45.70;;;;;;4946666;28;20389;-62
2022/05/06 00:31:18;;;;;;;4.40;4.00;;;20.70;45.70;;;;;;4945333;28;20083;-61
2022/05/06 00:33:44;;;;;;;4.07;3.78;;;20.70;45.60;;;;;;4944989;28;20593;-61
2022/05/06 00:36:10;;;;;;;4.40;4.00;;;20.70;45.60;;;;;;4946068;28;20138;-61
2022/05/06 00:38:36;;;;;;;5.32;3.85;;;20.70;45.60;;;;;;4945084;28;20364;-60
2022/05/06 00:41:01;;;;;;;3.92;3.53;;;20.70;45.60;;;;;;4946293;28;20039;-61
2022/05/06 00:43:27;;;;;;;4.93;3.92;;;20.70;45.60;;;;;;4946260;28;20046;-61
2022/05/06 00:45:56;;;;;;;3.92;3.63;;;20.70;45.60;;;;;;4945592;28;20477;-61
2022/05/06 00:48:27;;;;;;;4.90;4.13;;;20.70;45.60;;;;;;4946394;28;20038;-61
2022/05/06 00:51:00;;;;;;;4.03;3.63;;;20.60;45.50;;;;;;4946000;28;20472;-60
2022/05/06 00:53:26;;;;;;;4.15;3.72;;;20.70;45.50;;;;;;4945792;29;20114;-61
2022/05/06 00:55:52;;;;;;;4.70;4.28;;;20.60;45.50;;;;;;4944914;28;20521;-61
2022/05/06 00:58:19;;;;;;;4.95;4.00;;;20.70;45.50;;;;;;4946236;28;20135;-61
2022/05/06 01:00:45;;;;;;;4.22;3.75;;;20.60;45.40;;;;;;4944389;29;20051;-60
2022/05/06 01:03:11;;;;;;;4.45;3.80;;;20.60;45.80;;;;;;4945758;28;20523;-61
2022/05/06 01:05:38;;;;;;;5.22;4.50;;;20.60;45.40;;;;;;4944537;29;20498;-60
2022/05/06 01:08:05;;;;;;;4.15;3.70;;;20.60;45.40;;;;;;4944593;29;20520;-61
2022/05/06 01:10:31;;;;;;;4.55;3.85;;;20.60;45.40;;;;;;4938947;29;20039;-61
2022/05/06 01:12:57;;;;;;;5.45;4.20;;;20.60;45.40;;;;;;4945639;28;20050;-61
2022/05/06 01:15:24;;;;;;;4.00;3.70;;;20.60;45.30;;;;;;4945083;28;20474;-60
2022/05/06 01:17:51;;;;;;;5.55;4.00;;;20.60;45.60;;;;;;4945477;29;20122;-62
2022/05/06 01:20:18;;;;;;;8.50;4.03;;;20.60;45.30;;;;;;4943915;29;20519;-60
2022/05/06 01:22:45;;;;;;;4.93;3.80;;;20.60;45.30;;;;;;4945920;29;20507;-60
2022/05/06 01:25:11;;;;;;;4.30;3.90;;;20.60;45.30;;;;;;4944807;29;20031;-60
2022/05/06 01:28:02;;;;;;;4.72;4.15;;;20.60;45.30;;;;;;4944573;29;20043;-61
2022/05/06 01:30:36;;;;;;;4.57;4.10;;;20.60;45.20;;;;;;4945369;28;20488;-61
2022/05/06 01:33:04;;;;;;;4.93;4.20;;;20.60;45.30;;;;;;4944759;29;20039;-61
2022/05/06 01:35:31;;;;;;;4.30;3.90;;;20.60;45.20;;;;;;4944225;28;20043;-61
2022/05/06 01:38:02;;;;;;;4.63;3.88;;;20.60;45.20;;;;;;4945943;28;20047;-61
2022/05/06 01:40:31;;;;;;;;;;;20.60;45.20;;;;;;4944830;29;20518;-62
2022/05/06 01:43:00;;;;;;;5.22;4.10;;;20.50;45.10;;;;;;4945558;29;19922;-61
2022/05/06 01:45:29;;;;;;;4.35;3.95;;;20.50;45.20;;;;;;4943143;29;20441;-60
2022/05/06 01:47:55;;;;;;;4.18;3.88;;;20.50;45.20;;;;;;4944907;29;20393;-60
2022/05/06 01:50:21;;;;;;;4.30;3.85;;;20.50;45.10;;;;;;4944189;29;20043;-61
2022/05/06 01:52:51;;;;;;;4.55;4.18;;;20.50;45.10;;;;;;4943725;29;20121;-61
2022/05/06 01:55:17;;;;;;;4.40;4.00;;;20.50;45.10;;;;;;4943243;29;20035;-60
2022/05/06 01:57:43;;;;;;;4.60;4.20;;;20.50;45.10;;;;;;4944857;28;20051;-61
2022/05/06 02:00:09;;;;;;;4.20;3.80;;;20.50;45.10;;;;;;4942423;28;20050;-62
2022/05/06 02:02:35;;;;;;;4.40;4.00;;;20.50;45.10;;;;;;4938808;28;20361;-61
2022/05/06 02:05:19;;;;;;;4.43;3.67;;;20.50;45.00;;;;;;4940562;28;20042;-61
2022/05/06 02:07:49;;;;;;;4.20;3.80;;;20.50;45.00;;;;;;4943035;28;20039;-60
2022/05/06 02:10:19;;;;;;;4.37;3.97;;;20.50;45.00;;;;;;4944964;28;20086;-61
2022/05/06 02:12:45;;;;;;;4.13;3.78;;;20.50;45.00;;;;;;4947799;29;20130;-61
2022/05/06 02:15:13;;;;;;;4.43;4.03;;;20.50;45.00;;;;;;4948199;28;20055;-61
2022/05/06 02:17:39;;;;;;;4.03;3.63;;;20.50;44.90;;;;;;4947698;29;20051;-60
2022/05/06 02:20:06;;;;;;;4.13;3.50;;;20.50;44.90;;;;;;4940218;28;20040;-60
2022/05/06 02:22:33;;;;;;;4.07;3.67;;;20.50;44.90;;;;;;4936211;29;20034;-61
2022/05/06 02:24:59;;;;;;;5.07;4.47;;;20.50;44.90;;;;;;4945074;29;20046;-61
2022/05/06 02:27:24;;;;;;;4.60;4.20;;;20.50;44.90;;;;;;4948336;28;20043;-60
2022/05/06 02:35:19;;;;;;;5.10;4.60;;;20.50;44.80;;;;;;4947415;29;20169;-61
2022/05/06 02:37:45;;;;;;;4.22;3.83;;;20.50;44.80;;;;;;4946024;28;20130;-61
2022/05/06 02:40:11;;;;;;;4.18;3.88;;;20.50;44.70;;;;;;4947697;28;20046;-61
2022/05/06 02:42:37;;;;;;;4.18;3.72;;;20.50;44.70;;;;;;4948017;29;20159;-61
2022/05/06 02:45:04;;;;;;;4.63;4.22;;;20.50;44.80;;;;;;4944299;28;20090;-60
2022/05/06 02:47:29;;;;;;;5.22;4.45;;;20.50;44.70;;;;;;4947664;29;20047;-61
2022/05/06 02:49:55;;;;;;;4.90;4.07;;;20.50;44.70;;;;;;4947270;28;20039;-61
2022/05/06 02:52:22;;;;;;;4.90;4.40;;;20.50;44.70;;;;;;4946889;28;20369;-61
2022/05/06 02:54:48;;;;;;;4.85;4.38;;;20.50;44.70;;;;;;4947008;29;20059;-60
2022/05/06 02:57:13;;;;;;;4.55;4.13;;;20.50;44.70;;;;;;4947525;28;20054;-61
2022/05/06 02:59:39;;;;;;;5.40;4.32;;;20.40;44.60;;;;;;4946388;28;20039;-61
2022/05/06 03:02:05;;;;;;;5.15;4.60;;;20.50;44.70;;;;;;4947467;28;20200;-61
2022/05/06 03:04:31;;;;;;;5.93;4.45;;;20.50;44.60;;;;;;4945575;29;20042;-60
2022/05/06 03:06:57;;;;;;;4.57;4.18;;;20.40;44.50;;;;;;4947171;28;21023;-60
2022/05/06 03:09:23;;;;;;;4.50;4.10;;;20.50;44.60;;;;;;4946568;28;20035;-61
2022/05/06 03:11:49;;;;;;;4.78;4.28;;;20.40;44.50;;;;;;4946597;28;20902;-60
2022/05/06 03:14:14;;;;;;;5.78;4.55;;;20.40;44.50;;;;;;4947228;28;20066;-61
2022/05/06 03:16:40;;;;;;;4.78;4.28;;;20.40;44.50;;;;;;4947522;28;20050;-61
2022/05/06 03:19:06;;;;;;;5.18;4.65;;;20.40;44.50;;;;;;4947301;29;20189;-61
2022/05/06 03:21:32;;;;;;;4.40;3.85;;;20.40;44.40;;;;;;4945308;28;20043;-62
2022/05/06 03:23:59;;;;;;;4.82;4.32;;;20.40;44.40;;;;;;4947018;29;20066;-60
2022/05/06 03:26:25;;;;;;;4.72;4.25;;;20.40;44.40;;;;;;4945082;28;20512;-61
2022/05/06 03:28:52;;;;;;;6.47;4.18;;;20.40;44.40;;;;;;4947143;28;20383;-61
2022/05/06 03:31:18;;;;;;;4.63;4.15;;;20.40;44.40;;;;;;4946707;29;20050;-61
2022/05/06 03:33:44;;;;;;;4.60;4.20;;;20.40;44.40;;;;;;4944557;29;20063;-60
2022/05/06 03:36:10;;;;;;;4.70;4.30;;;20.40;44.30;;;;;;4946217;29;20066;-61
2022/05/06 03:38:35;;;;;;;4.93;4.53;;;20.40;44.30;;;;;;4945980;28;20043;-60
2022/05/06 03:41:01;;;;;;;5.50;4.70;;;20.40;44.30;;;;;;4945473;28;20495;-60
2022/05/06 03:43:27;;;;;;;5.30;4.82;;;20.40;44.40;;;;;;4945878;28;20090;-61
2022/05/06 03:45:53;;;;;;;6.07;4.68;;;20.40;44.30;;;;;;4946604;29;20035;-60
2022/05/06 03:48:24;;;;;;;4.78;4.35;;;20.40;44.20;;;;;;4946006;28;20039;-61
2022/05/06 03:53:38;;;;;;;5.70;4.72;;;20.40;44.20;;;;;;4946046;29;20110;-61
2022/05/06 03:56:04;;;;;;;5.22;4.32;;;20.30;44.20;;;;;;4945854;28;20047;-61
2022/05/06 03:58:30;;;;;;;5.60;5.00;;;20.40;44.20;;;;;;4946282;29;20043;-60
2022/05/06 04:00:56;;;;;;;4.80;4.30;;;20.30;44.20;;;;;;4943241;28;20479;-61
2022/05/06 04:03:21;;;;;;;6.70;4.60;;;20.40;44.20;;;;;;4942552;28;20071;-61
2022/05/06 04:05:47;;;;;;;5.35;4.88;;;20.40;44.10;;;;;;4944503;28;20035;-60
2022/05/06 04:08:12;;;;;;;4.80;4.32;;;20.40;44.20;;;;;;4944328;28;20039;-60
2022/05/06 04:10:38;;;;;;;5.13;4.63;;;20.30;44.10;;;;;;4947271;28;20047;-60
2022/05/06 04:13:04;;;;;;;4.90;4.43;;;20.40;44.10;;;;;;4944102;29;20141;-60
2022/05/06 04:15:32;;;;;;;5.55;5.05;;;20.40;44.10;;;;;;4947566;28;20050;-59
2022/05/06 04:17:58;;;;;;;6.28;5.05;;;20.40;44.00;;;;;;4945091;28;20712;-60
2022/05/06 04:25:52;;;;;;;4.95;4.55;;;20.30;44.00;;;;;;4946360;29;20451;-60
2022/05/06 04:28:18;;;;;;;5.22;4.72;;;20.30;43.90;;;;;;4945819;28;20086;-60
2022/05/06 04:30:44;;;;;;;6.13;5.03;;;20.30;43.80;;;;;;4946529;28;20049;-60
2022/05/06 04:33:09;;;;;;;5.47;4.97;;;20.30;43.80;;;;;;4944959;28;20062;-59
2022/05/06 04:35:35;;;;;;;5.55;4.95;;;20.30;43.80;;;;;;4946420;28;20054;-61
2022/05/06 04:38:01;;;;;;;5.63;5.07;;;20.30;43.80;;;;;;4944931;28;20476;-60
2022/05/06 04:40:26;;;;;;;5.85;5.25;;;20.30;43.80;;;;;;4960453;28;20460;-60
2022/05/06 04:42:52;;;;;;;7.05;5.97;;;20.30;43.80;;;;;;4946108;28;20042;-60
2022/05/06 04:45:17;;;;;;;6.45;5.82;;;20.30;44.60;;;;;;4945700;29;20043;-60
2022/05/06 04:47:43;;;;;;;7.13;6.25;;;20.30;43.90;;;;;;4946377;28;20488;-59
2022/05/06 04:50:09;;;;;;;7.28;5.88;;;20.30;44.00;;;;;;4942874;29;20047;-60
2022/05/06 04:52:34;;;;;;;6.80;6.00;;;20.30;44.10;;;;;;4951571;28;20735;-60
2022/05/06 04:55:00;;;;;;;6.57;5.90;;;20.30;44.10;;;;;;4944060;29;20062;-61
2022/05/06 04:57:26;;;;;;;7.22;5.97;;;20.30;44.20;;;;;;4946329;28;20047;-60
2022/05/06 04:59:51;;;;;;;7.50;6.15;;;20.30;44.30;;;;;;4943964;29;20472;-60
2022/05/06 05:02:18;;;;;;;6.88;5.78;;;20.30;44.30;;;;;;4945870;28;20129;-59
2022/05/06 05:04:44;;;;;;;6.45;5.85;;;20.30;44.40;;;;;;4944063;28;20036;-60
2022/05/06 05:07:10;;;;;;;5.72;5.22;;;20.30;44.40;;;;;;4946223;28;20110;-61
2022/05/06 05:09:36;;;;;;;6.05;5.55;;;20.20;44.40;;;;;;4944546;29;20844;-59
2022/05/06 05:12:03;;;;;;;6.47;5.88;;;20.20;44.50;;;;;;4945660;28;21431;-60
2022/05/06 05:14:28;;;;;;;6.40;5.80;;;20.20;44.50;;;;;;4944212;29;20047;-59
2022/05/06 05:16:54;;;;;;;6.75;6.15;;;20.30;44.70;;;;;;4946456;28;20051;-59
2022/05/06 05:19:20;;;;;;;6.25;5.65;;;20.30;44.70;;;;;;4944758;28;20325;-61
2022/05/06 05:21:47;;;;;;;6.22;5.63;;;20.20;44.70;;;;;;4945869;29;20051;-62
2022/05/06 05:24:13;;;;;;;6.68;5.93;;;20.20;44.80;;;;;;4943813;28;20047;-60
2022/05/06 05:26:38;;;;;;;6.47;5.88;;;20.20;44.80;;;;;;4944972;28;20101;-59
2022/05/06 05:29:04;;;;;;;6.47;5.72;;;20.20;44.90;;;;;;4944509;28;20065;-61
2022/05/06 05:31:30;;;;;;;6.68;5.78;;;20.20;45.00;;;;;;4957866;28;20672;-61
2022/05/06 05:33:56;;;;;;;6.45;5.75;;;20.20;45.00;;;;;;4945108;28;20064;-61
2022/05/06 05:36:21;;;;;;;6.35;5.75;;;20.20;45.00;;;;;;4943643;28;20126;-58
2022/05/06 05:38:47;;;;;;;6.30;5.50;;;20.20;45.20;;;;;;4945872;28;20047;-59
2022/05/06 05:41:12;;;;;;;6.18;5.55;;;20.20;45.40;;;;;;4943279;29;20432;-58
2022/05/06 05:49:07;;;;;;;7.55;5.97;;;20.20;45.70;;;;;;4948840;28;20598;-58
2022/05/06 05:51:33;;;;;;;9.95;8.95;;;20.20;45.90;;;;;;4945894;28;20043;-60
2022/05/06 05:53:59;;;;;;;12.20;8.98;;;20.20;46.20;;;;;;4946549;28;20065;-58
2022/05/06 05:56:25;;;;;;;10.75;8.95;;;20.20;46.30;;;;;;4948926;28;20040;-60
2022/05/06 05:58:51;;;;;;;9.77;8.00;;;20.20;46.40;;;;;;4948967;28;20050;-59
2022/05/06 06:01:17;;;;;;;8.13;7.32;;;20.20;46.50;;;;;;4947280;29;20091;-58
2022/05/06 06:03:43;;;;;;;10.00;7.70;;;20.20;46.50;;;;;;4948253;28;20558;-59
2022/05/06 06:06:08;;;;;;;10.75;7.25;;;20.20;46.70;;;;;;4949903;28;20234;-58
2022/05/06 06:08:34;;;;;;;9.05;7.30;;;20.20;46.90;;;;;;4948941;28;20414;-59
2022/05/06 06:11:01;;;;;;;15.68;7.72;;;20.20;46.80;;;;;;4947442;28;20046;-61
2022/05/06 06:13:30;;;;;;;10.90;7.55;;;20.20;46.80;;;;;;4949638;29;20083;-61
2022/05/06 06:15:57;;;;;;;8.15;7.35;;;20.20;47.00;;;;;;4947744;28;20043;-61
2022/05/06 06:18:26;;;;;;;9.05;6.30;;;20.20;47.00;;;;;;4947621;29;20093;-62
2022/05/06 06:20:53;;;;;;;7.28;6.47;;;20.20;47.10;;;;;;4947327;28;20472;-60
2022/05/06 06:23:20;;;;;;;8.05;6.95;;;20.20;47.40;;;;;;4946974;28;20043;-60
2022/05/06 06:25:45;;;;;;;7.97;7.10;;;20.20;47.40;;;;;;4947175;28;20076;-61
2022/05/06 06:28:11;;;;;;;7.57;6.78;;;20.20;47.50;;;;;;4948083;29;20457;-61
2022/05/06 06:30:36;;;;;;;7.50;6.28;;;20.20;47.60;;;;;;4927719;29;20142;-60
2022/05/06 06:33:02;;;;;;;8.30;6.63;;;20.20;47.40;;;;;;4943680;28;20415;-60
2022/05/06 06:35:28;;;;;;;6.93;5.88;;;20.20;47.40;;;;;;4943911;28;20087;-62
2022/05/06 06:37:54;;;;;;;6.65;6.05;;;20.20;47.40;;;;;;4944776;28;20096;-60
2022/05/06 06:40:20;;;;;;;7.07;6.47;;;20.20;47.40;;;;;;4944751;29;20039;-59
2022/05/06 06:42:46;;;;;;;6.35;5.63;;;20.20;47.40;;;;;;4942763;28;20070;-60
2022/05/06 06:45:12;;;;;;;6.70;6.07;;;20.20;47.70;;;;;;4943373;28;20048;-60
2022/05/06 06:47:38;;;;;;;7.20;6.50;;;20.30;47.80;;;;;;4943372;28;20146;-62
2022/05/06 06:50:04;;;;;;;7.38;5.30;;;20.20;47.60;;;;;;4944544;28;20373;-63
2022/05/06 06:52:29;;;;;;;7.47;6.72;;;20.30;47.70;;;;;;4944864;28;20066;-60
2022/05/06 06:54:57;;;;;;;6.65;6.05;;;20.20;47.70;;;;;;4946825;28;20035;-59
2022/05/06 06:57:22;;;;;;;7.28;6.05;;;20.30;47.80;;;;;;4943866;28;20047;-59
2022/05/06 06:59:48;;;;;;;6.70;6.10;;;20.20;47.90;;;;;;4946897;28;20043;-61
2022/05/06 07:02:13;;;;;;;6.93;6.30;;;20.30;47.90;;;;;;4946020;28;20084;-59
2022/05/06 07:04:39;;;;;;;6.13;5.53;;;20.20;47.90;;;;;;4945915;28;20511;-60
2022/05/06 07:12:33;;;;;;;7.90;6.63;;;20.20;48.00;;;;;;4944796;28;20121;-60
2022/05/06 07:14:59;;;;;;;7.32;6.50;;;20.20;48.20;;;;;;4943431;28;20054;-60
2022/05/06 07:17:24;;;;;;;7.35;6.43;;;20.20;48.20;;;;;;4941704;28;20054;-59
2022/05/06 07:19:50;;;;;;;7.45;6.65;;;20.20;48.20;;;;;;4943678;28;20055;-63
2022/05/06 07:22:16;;;;;;;8.35;7.38;;;20.20;48.40;;;;;;4942045;28;20407;-61
2022/05/06 07:24:42;;;;;;;7.03;6.32;;;20.20;48.40;;;;;;4943394;28;20048;-60
2022/05/06 07:27:08;;;;;;;8.70;7.05;;;20.20;48.40;;;;;;4944686;29;20503;-59
2022/05/06 07:29:34;;;;;;;9.32;7.28;;;20.20;48.40;;;;;;4941576;28;20054;-60
2022/05/06 07:32:00;;;;;;;9.25;7.28;;;20.20;48.60;;;;;;4945732;29;20629;-60
2022/05/06 07:34:26;;;;;;;8.95;7.18;;;20.20;48.60;;;;;;4948849;28;20067;-61
2022/05/06 07:36:52;;;;;;;7.57;6.88;;;20.20;48.70;;;;;;4946119;28;20050;-62
2022/05/06 07:39:17;;;;;;;8.48;6.93;;;20.20;48.60;;;;;;4943919;28;20074;-63
2022/05/06 07:41:43;;;;;;;9.05;7.43;;;20.20;48.70;;;;;;4946625;28;20074;-62
2022/05/06 07:44:09;;;;;;;9.07;7.35;;;20.20;48.70;;;;;;4945794;28;20043;-61
2022/05/06 07:46:35;;;;;;;8.18;7.10;;;20.20;48.80;;;;;;4943560;29;20472;-61
2022/05/06 07:49:02;;;;;;;8.85;7.38;;;20.20;48.80;;;;;;4945494;29;20035;-61
2022/05/06 07:51:28;;;;;;;9.98;8.15;;;20.20;48.90;;;;;;4947283;28;20121;-60
2022/05/06 07:53:56;;;;;;;8.30;6.97;;;20.20;49.00;;;;;;4944150;28;20031;-60
2022/05/06 07:56:23;;;;;;;10.63;6.82;;;20.20;49.00;;;;;;4945439;28;20060;-59
2022/05/06 07:58:49;;;;;;;8.77;6.97;;;20.20;48.80;;;;;;4946169;28;20042;-61
2022/05/06 08:01:15;;;;;;;7.20;6.20;;;20.20;48.70;;;;;;4950514;28;20051;-59
2022/05/06 08:06:25;;;;;;;12.02;5.75;;;20.20;48.80;;;;;;4943325;29;20632;-59
2022/05/06 08:08:50;;;;;;;7.35;6.47;;;20.20;48.80;;;;;;4944557;28;20086;-61
2022/05/06 08:11:17;;;;;;;6.93;5.90;;;20.30;49.00;;;;;;4943749;28;20035;-59
2022/05/06 08:13:44;;;;;;;10.00;6.28;;;20.20;49.00;;;;;;4943305;28;20043;-60
2022/05/06 08:16:10;;;;;;;14.13;6.72;;;20.30;49.40;;;;;;4945229;29;20047;-61
2022/05/06 08:18:36;;;;;;;9.65;6.13;;;20.30;49.70;;;;;;4942822;29;20118;-60
2022/05/06 08:21:03;;;;;;;7.47;6.07;;;20.30;50.20;;;;;;4944970;28;20110;-59
2022/05/06 08:23:28;;;;;;;7.32;5.90;;;20.30;50.30;;;;;;4943221;28;20053;-59
2022/05/06 08:25:54;;;;;;;6.70;5.80;;;20.30;50.50;;;;;;4945762;29;20499;-60
2022/05/06 08:28:20;;;;;;;9.88;6.18;;;20.30;50.60;;;;;;4943650;28;20043;-59
2022/05/06 08:30:50;;;;;;;9.00;6.35;;;20.30;50.70;;;;;;4945193;28;20546;-60
2022/05/06 08:33:17;;;;;;;9.38;6.53;;;20.30;50.80;;;;;;4939039;29;20180;-60
2022/05/06 08:35:43;;;;;;;9.35;6.22;;;20.30;50.80;;;;;;4944444;28;20118;-61
2022/05/06 08:38:09;;;;;;;9.77;6.20;;;20.30;50.90;;;;;;4942580;28;20054;-62
2022/05/06 08:40:38;;;;;;;12.80;6.05;;;20.30;50.80;;;;;;4942854;29;20246;-59
2022/05/06 08:43:04;;;;;;;6.95;5.95;;;20.40;51.10;;;;;;4944873;28;20155;-60
2022/05/06 08:51:02;;;;;;;9.65;6.03;;;20.40;51.40;;;;;;4945011;28;20053;-60
2022/05/06 08:53:37;;;;;;;8.20;5.68;;;20.40;51.40;;;;;;4942948;28;20426;-62
2022/05/06 08:56:03;;;;;;;7.50;5.85;;;20.40;51.50;;;;;;4945645;29;20454;-61
2022/05/06 08:58:31;;;;;;;5.97;5.40;;;20.40;51.50;;;;;;4940946;28;20139;-61
2022/05/06 09:01:26;;;;;;;5.93;5.00;;;20.40;51.30;;;;;;4942234;28;20615;-60
2022/05/06 09:03:52;;;;;;;7.35;5.05;;;20.40;51.50;;;;;;4927405;28;20051;-60
2022/05/06 09:06:26;;;;;;;7.80;4.95;;;20.40;51.30;;;;;;4944119;28;20122;-60
2022/05/06 09:08:53;;;;;;;8.32;5.45;;;20.40;51.20;;;;;;4943084;29;20050;-61
2022/05/06 09:14:04;;;;;;;6.60;3.97;;;20.40;50.80;;;;;;4943357;29;20051;-60
2022/05/06 09:16:44;;;;;;;6.38;4.50;;;20.40;50.90;;;;;;4943300;29;20054;-61
2022/05/06 09:19:27;;;;;;;4.75;4.10;;;20.40;50.70;;;;;;4943533;28;20117;-59
2022/05/06 09:22:02;;;;;;;5.13;3.33;;;20.40;50.60;;;;;;4949217;28;20693;-59
2022/05/06 09:24:28;;;;;;;4.15;3.58;;;20.40;50.50;;;;;;4949053;29;20555;-60
2022/05/06 09:27:04;;;;;;;3.65;2.95;;;20.40;50.30;;;;;;4950335;28;20103;-61
2022/05/06 09:29:42;;;;;;;3.35;3.05;;;20.40;50.30;;;;;;4948097;29;20055;-63
2022/05/06 09:32:23;;;;;;;4.80;2.90;;;20.40;50.30;;;;;;4946421;29;20130;-59
2022/05/06 09:35:13;;;;;;;2.97;2.70;;;20.40;50.00;;;;;;4947532;29;20059;-59
2022/05/06 09:37:45;;;;;;;3.22;2.88;;;20.40;50.00;;;;;;4949657;29;20335;-61
2022/05/06 09:40:22;;;;;;;3.53;2.80;;;20.40;50.00;;;;;;4947027;28;20043;-60
2022/05/06 09:42:53;;;;;;;4.72;2.83;;;20.40;50.00;;;;;;4949748;29;21218;-60
2022/05/06 09:45:28;;;;;;;2.60;2.40;;;20.40;50.00;;;;;;4946609;28;20047;-60
2022/05/06 09:48:01;;;;;;;3.70;2.40;;;20.40;49.90;;;;;;4949631;28;20039;-61
2022/05/06 09:50:35;;;;;;;2.85;2.20;;;20.40;50.00;;;;;;4948297;28;20105;-60
2022/05/06 09:53:03;;;;;;;2.35;2.15;;;20.40;50.00;;;;;;4948130;28;20542;-60
2022/05/06 09:55:30;;;;;;;2.58;2.38;;;20.40;50.10;;;;;;4947071;29;20039;-61
2022/05/06 09:57:57;;;;;;;3.53;2.15;;;20.40;50.10;;;;;;4947645;29;20153;-61
2022/05/06 10:00:23;;;;;;;2.47;2.25;;;20.40;50.10;;;;;;4946019;29;20047;-63
2022/05/06 10:02:48;;;;;;;2.50;2.30;;;20.40;49.90;;;;;;4949156;29;20035;-62
2022/05/06 10:05:14;;;;;;;2.45;2.25;;;20.40;49.80;;;;;;4946860;28;20086;-61
2022/05/06 10:07:43;;;;;;;3.78;2.63;;;20.40;49.80;;;;;;4948947;28;20043;-61
2022/05/06 10:10:15;;;;;;;2.72;2.50;;;20.40;49.70;;;;;;4945542;29;20054;-62
2022/05/06 10:12:45;;;;;;;3.42;2.40;;;20.40;49.40;;;;;;4944309;29;20543;-60
2022/05/06 10:15:13;;;;;;;2.35;2.10;;;20.40;49.30;;;;;;4946533;29;20053;-61
2022/05/06 10:17:51;;;;;;;1.98;1.83;;;20.40;49.10;;;;;;4946306;28;20133;-61
2022/05/06 10:20:35;;;;;;;2.50;2.15;;;20.40;48.90;;;;;;4947337;29;20051;-60
2022/05/06 10:23:03;;;;;;;2.00;1.90;;;20.40;48.80;;;;;;4946507;29;20058;-61
2022/05/06 10:25:44;;;;;;;2.15;1.90;;;20.30;48.80;;;;;;4946637;29;20043;-62
2022/05/06 10:34:07;;;;;;;2.78;1.88;;;20.30;48.80;;;;;;4946481;29;20162;-62
2022/05/06 10:36:46;;;;;;;2.30;1.60;;;20.30;48.90;;;;;;4945274;29;20121;-59
2022/05/06 10:39:23;;;;;;;2.40;1.83;;;20.40;48.90;;;;;;4946325;29;20715;-59
2022/05/06 10:42:07;;;;;;;2.00;1.90;;;20.40;48.90;;;;;;4946191;29;20046;-61
2022/05/06 10:44:44;;;;;;;1.63;1.45;;;20.40;48.80;;;;;;4948760;28;20053;-59
2022/05/06 10:47:13;;;;;;;2.08;1.65;;;20.40;48.80;;;;;;4944847;29;20141;-60
2022/05/06 10:49:38;;;;;;;2.15;1.52;;;20.30;48.90;;;;;;4945918;29;20047;-59
2022/05/06 10:52:23;;;;;;;2.50;1.40;;;20.30;48.80;;;;;;4942448;28;20308;-60
2022/05/06 10:55:03;;;;;;;1.70;1.60;;;20.30;48.80;;;;;;4947253;29;20050;-62
2022/05/06 10:57:30;;;;;;;2.15;1.80;;;20.30;48.80;;;;;;4944749;29;20372;-61
2022/05/06 11:00:05;;;;;;;2.22;1.98;;;20.40;49.10;;;;;;4946164;29;20885;-60
2022/05/06 11:02:33;;;;;;;2.88;1.45;;;20.40;49.50;;;;;;4945301;28;20830;-61
2022/05/06 11:05:03;;;;;;;5.07;3.53;;;20.30;49.20;;;;;;4946471;29;20043;-60
2022/05/06 11:07:31;;;;;;;5.05;4.13;;;20.40;48.30;;;;;;4942130;28;20054;-61
2022/05/06 11:09:57;;;;;;;3.90;3.60;;;20.30;47.90;;;;;;4944818;28;20047;-62
2022/05/06 11:12:33;;;;;;;5.53;4.10;;;20.30;47.90;;;;;;4945634;29;20420;-59
2022/05/06 11:15:04;;;;;;;4.25;3.85;;;20.20;48.50;;;;;;4944054;29;20117;-60
2022/05/06 11:17:31;;;;;;;4.35;3.95;;;20.20;47.90;;;;;;4945836;29;20047;-60
2022/05/06 11:19:58;;;;;;;3.90;3.60;;;20.20;48.00;;;;;;4947565;28;20043;-60
2022/05/06 11:22:25;;;;;;;6.30;3.60;;;20.10;47.70;;;;;;4941694;28;20047;-61
2022/05/06 11:24:57;;;;;;;4.07;3.50;;;20.10;47.40;;;;;;4943070;29;20071;-61
2022/05/06 11:27:23;;;;;;;4.85;4.35;;;20.10;47.40;;;;;;4945220;29;20090;-59
2022/05/06 11:29:50;;;;;;;5.00;4.20;;;20.10;47.70;;;;;;4946940;28;20130;-60
2022/05/06 11:32:16;;;;;;;5.03;4.30;;;20.10;47.70;;;;;;4945351;28;20143;-61
2022/05/06 11:35:05;;;;;;;6.22;3.83;;;20.10;47.60;;;;;;4944579;29;20460;-60
2022/05/06 11:37:34;;;;;;;4.30;2.92;;;20.10;47.30;;;;;;4934585;29;20050;-62
2022/05/06 11:42:45;;;;;;;2.90;2.70;;;20.10;47.30;;;;;;4943502;28;20431;-60
2022/05/06 11:48:05;;;;;;;5.10;3.88;;;20.10;46.70;;;;;;4944757;29;20078;-62
2022/05/06 11:50:32;;;;;;;3.60;3.30;;;20.10;46.50;;;;;;4946756;29;20039;-61
2022/05/06 11:52:59;;;;;;;4.28;2.97;;;20.10;46.40;;;;;;4945755;28;20035;-61
2022/05/06 11:55:25;;;;;;;5.35;4.65;;;20.10;46.50;;;;;;4947113;28;20066;-60
2022/05/06 11:57:51;;;;;;;5.40;4.60;;;20.10;46.80;;;;;;4946508;29;20385;-61
2022/05/06 12:00:17;;;;;;;5.05;4.60;;;20.10;47.10;;;;;;4946445;28;20039;-60
2022/05/06 12:02:51;;;;;;;6.15;4.97;;;20.20;47.20;;;;;;4946018;28;20090;-61
2022/05/06 12:05:18;;;;;;;6.82;4.22;;;20.20;47.00;;;;;;4946346;29;20039;-61
2022/05/06 12:07:48;;;;;;;5.40;4.10;;;20.10;47.00;;;;;;4945815;28;20428;-62
2022/05/06 12:10:28;;;;;;;8.02;3.83;;;20.20;47.10;;;;;;4946375;29;20051;-59
2022/05/06 12:12:58;;;;;;;7.85;3.78;;;20.20;47.20;;;;;;4946421;28;20106;-64
2022/05/06 12:15:43;;;;;;;9.23;5.43;;;20.10;47.10;;;;;;4943929;28;20062;-60
2022/05/06 12:18:27;;;;;;;6.15;5.15;;;20.20;47.10;;;;;;4944969;29;20043;-61
2022/05/06 12:20:52;;;;;;;5.70;4.90;;;20.20;47.10;;;;;;4944912;28;20134;-62
2022/05/06 12:23:28;;;;;;;5.47;4.85;;;20.20;47.40;;;;;;4943471;28;20138;-60
2022/05/06 12:25:54;;;;;;;5.57;4.65;;;20.20;47.40;;;;;;4944053;29;20058;-62
2022/05/06 12:28:20;;;;;;;5.65;4.80;;;20.20;47.60;;;;;;4945014;28;20043;-61
2022/05/06 12:30:47;;;;;;;6.95;5.75;;;20.20;47.80;;;;;;4945249;29;20452;-62
2022/05/06 12:33:12;;;;;;;6.80;6.13;;;20.20;47.90;;;;;;4943827;28;20059;-62
2022/05/06 12:35:57;;;;;;;6.40;5.70;;;20.20;48.10;;;;;;4945335;29;20612;-61
2022/05/06 12:38:26;;;;;;;12.43;5.30;;;20.30;49.00;;;;;;4944386;29;20043;-62
2022/05/06 12:40:53;;;;;;;6.05;4.53;;;20.30;48.20;;;;;;4946044;28;20447;-60
2022/05/06 12:43:26;;;;;;;6.32;5.20;;;20.30;48.40;;;;;;4944852;29;20114;-61
2022/05/06 12:45:59;;;;;;;6.72;5.28;;;20.30;48.50;;;;;;4945563;29;20050;-60
2022/05/06 12:51:09;;;;;;;5.93;5.40;;;20.40;48.40;;;;;;4943950;28;20475;-63
2022/05/06 12:53:35;;;;;;;7.10;5.28;;;20.30;48.40;;;;;;4945699;28;20051;-61
2022/05/06 12:56:04;;;;;;;6.32;4.75;;;20.30;48.40;;;;;;4944907;28;20428;-61
2022/05/06 12:58:30;;;;;;;4.80;4.35;;;20.40;48.50;;;;;;4945667;28;20058;-61
2022/05/06 13:00:59;;;;;;;7.07;4.53;;;20.40;48.70;;;;;;4942344;29;20890;-60
2022/05/06 13:03:25;;;;;;;4.80;4.22;;;20.30;48.70;;;;;;4943752;29;20050;-61
2022/05/06 13:05:53;;;;;;;5.15;4.38;;;20.40;48.80;;;;;;4946301;28;20466;-60
2022/05/06 13:08:20;;;;;;;6.57;5.07;;;20.40;49.00;;;;;;4945347;28;20039;-61
2022/05/06 13:10:45;;;;;;;8.93;4.95;;;20.40;49.70;;;;;;4943969;28;20135;-65
2022/05/06 13:13:11;;;;;;;7.38;5.60;;;20.40;50.30;;;;;;4945505;28;20129;-64
2022/05/06 13:15:37;;;;;;;5.72;4.10;;;20.50;50.20;;;;;;4943916;29;20118;-63
2022/05/06 13:18:03;;;;;;;4.35;3.47;;;20.50;50.50;;;;;;4945260;28;20083;-61
2022/05/06 13:20:28;;;;;;;3.65;3.10;;;20.50;50.60;;;;;;4943585;28;20044;-61
2022/05/06 13:22:54;;;;;;;4.75;3.17;;;20.50;49.90;;;;;;4942287;29;20138;-60
2022/05/06 13:25:19;;;;;;;4.50;2.53;;;20.50;49.30;;;;;;4944174;28;20039;-62
2022/05/06 13:27:45;;;;;;;4.03;2.50;;;20.60;49.10;;;;;;4945898;29;20114;-61
2022/05/06 13:30:11;;;;;;;3.90;2.42;;;20.60;49.20;;;;;;4942193;28;20043;-62
2022/05/06 13:32:37;;;;;;;4.30;2.55;;;20.70;49.00;;;;;;4940760;29;20573;-61
2022/05/06 13:35:02;;;;;;;3.75;2.38;;;20.70;48.40;;;;;;4942003;29;20107;-61
2022/05/06 13:37:28;;;;;;;2.83;2.20;;;20.80;48.40;;;;;;4942105;29;20047;-60
2022/05/06 13:39:54;;;;;;;5.07;2.65;;;20.70;48.10;;;;;;4930683;28;20039;-61